Flight Track Log - Related Links

Times and Time Zones

All times are in EDT time to prevent confusion due to time zone crossing. See the AWE1891 flight status page for this flight to view local times or setup timezone preferences in your user account.

Time Position Orientation Groundspeed Altitude Reporting Facility
EDT Latitude Longitude Course Direction KTS MPH feet Rate Location/Type
Wed 06:10:50 PM 35.1950 -80.9356 165° South 150 173 1,600  Level Atlanta Center
Wed 06:11:57 PM 35.1386 -80.9300 175° South 192 221 3,800 2,109 Climbing Atlanta Center
Wed 06:12:58 PM 35.0714 -80.9147 169° South 269 310 6,100 2,607 Climbing Atlanta Center
Wed 06:13:00 PM 34.8949 -81.0016 175° South  Level Estimated
Wed 06:13:59 PM 34.9939 -80.9025 173° South 292 336 9,100  Level Atlanta Center
Wed 06:14:00 PM 34.7887 -81.0190 180° South  Level Estimated
Wed 06:15:00 PM 34.6824 -81.0363 180° South  Level Estimated
Wed 06:15:56 PM 34.8219 -80.9025 180° South 342 394 13,800  Level Jacksonville Center
Wed 06:16:00 PM 34.5761 -81.0537 165° South  Level Estimated
Wed 06:16:56 PM 34.7219 -80.8997 179° South 355 409 16,500  Level Jacksonville Center
Wed 06:17:56 PM 34.6175 -80.8944 178° South 366 421 18,800 2,350 Climbing Jacksonville Center
Wed 06:18:56 PM 34.5092 -80.8919 179° South 379 436 21,200 5,600 Climbing Jacksonville Center
Wed 06:19:56 PM 34.4033 -80.9322 197° South 394 453 30,000 2,000 Climbing Jacksonville Center
Wed 06:20:56 PM 34.2969 -80.9419 184° South 394 453 25,200 -1,550 Descending Jacksonville Center
Wed 06:21:56 PM 34.1742 -80.9575 186° South 399 459 26,900 1,700 Climbing Jacksonville Center
Wed 06:22:56 PM 34.0531 -80.9525 178° South 420 483 28,600 1,500 Climbing Jacksonville Center
Wed 06:23:56 PM 33.9322 -80.9528 180° South 426 490 29,900 700 Climbing Jacksonville Center
Wed 06:24:56 PM 33.8069 -80.9481 178° South 439 505 30,000 50 Climbing Jacksonville Center
Wed 06:25:56 PM 33.6858 -80.9456 179° South 444 511 30,000  Level Jacksonville Center
Wed 06:26:56 PM 33.5606 -80.9433 179° South 444 511 30,000  Level Jacksonville Center
Wed 06:27:56 PM 33.4375 -80.9436 180° South 444 511 30,000  Level Jacksonville Center
Wed 06:28:56 PM 33.3142 -80.9414 179° South 439 505 30,000  Level Jacksonville Center
Wed 06:29:56 PM 33.1911 -80.9392 179° South 439 505 30,000  Level Jacksonville Center
Wed 06:30:56 PM 33.0658 -80.9369 179° South 439 505 30,000  Level Jacksonville Center
Wed 06:31:56 PM 32.9406 -80.9347 179° South 439 505 30,000  Level Jacksonville Center
Wed 06:32:56 PM 32.8153 -80.9325 179° South 439 505 30,000  Level Jacksonville Center
Wed 06:33:56 PM 32.6919 -80.9278 178° South 439 505 30,000  Level Jacksonville Center
Wed 06:34:56 PM 32.5667 -80.9256 179° South 441 507 30,000  Level Jacksonville Center
Wed 06:35:56 PM 32.4436 -80.9233 179° South 441 507 30,000  Level Jacksonville Center
Wed 06:36:56 PM 32.3183 -80.9236 180° South 441 507 30,000 -300 Level Jacksonville Center
Wed 06:37:56 PM 32.2075 -80.9233 180° South 441 507 29,400 -1,050 Descending Jacksonville Center
Wed 06:38:56 PM 32.0744 -80.9458 188° South 441 507 27,900 -1,700 Descending Jacksonville Center
Wed 06:39:56 PM 31.9581 -80.9803 194° South 441 507 26,000 -1,900 Descending Jacksonville Center
Wed 06:40:56 PM 31.8603 -81.0117 195° South 421 484 24,100 -2,150 Descending Jacksonville Center
Wed 06:41:56 PM 31.7461 -81.0481 195° South 397 457 21,700 -1,550 Descending Jacksonville Center
Wed 06:42:56 PM 31.6442 -81.0819 196° South 385 443 21,000 -1,050 Descending Jacksonville Center
Wed 06:43:56 PM 31.5528 -81.1103 195° South 375 432 19,600 -1,500 Descending Jacksonville Center
Wed 06:44:56 PM 31.4425 -81.1417 194° South 369 425 18,000 -1,350 Descending Jacksonville Center
Wed 06:45:56 PM 31.3572 -81.1700 196° South 359 413 16,900 -1,150 Descending Jacksonville Center
Wed 06:46:56 PM 31.2575 -81.2036 196° South 364 419 15,700 -1,371 Descending Jacksonville Center
Wed 06:47:06 PM 31.2344 -81.2064 186° South 361 415 15,300 -1,765 Descending Jacksonville Center
Wed 06:47:30 PM 31.1908 -81.2217 197° South 360 414 14,700 -1,200 Descending Jacksonville Center
Wed 06:47:56 PM 31.1619 -81.2319 197° South 364 419 14,300 -1,279 Descending Jacksonville Center
Wed 06:48:31 PM 31.0953 -81.2525 195° South 356 410 13,400 -1,300 Descending Jacksonville Center
Wed 06:48:56 PM 31.0661 -81.2628 197° South 359 413 13,000 -1,279 Descending Jacksonville Center
Wed 06:49:32 PM 31.0017 -81.2808 194° South 341 392 12,100 -1,200 Descending Jacksonville Center
Wed 06:49:56 PM 30.9747 -81.2911 198° South 353 406 11,800 -1,161 Descending Jacksonville Center
Wed 06:50:34 PM 30.9122 -81.3089 194° South 327 376 10,900 -1,100 Descending Jacksonville Center
Wed 06:50:56 PM 30.8894 -81.3192 201° Southwest 337 388 10,700 -1,082 Descending Jacksonville Center
Wed 06:51:35 PM 30.8439 -81.3489 209° Southwest 276 318 9,800 -1,200 Descending Jacksonville Center
Wed 06:51:56 PM 30.8275 -81.3686 226° Southwest 285 328 9,500 -1,869 Descending Jacksonville Center
Wed 06:52:36 PM 30.7989 -81.4269 240° Southwest 274 315 7,900 -1,800 Descending Jacksonville Center
Wed 06:52:56 PM 30.7867 -81.4464 234° Southwest 274 315 7,700 -1,377 Descending Jacksonville Center
Wed 06:53:37 PM 30.7536 -81.4978 233° Southwest 270 311 6,500 -1,500 Descending Jacksonville Center
Wed 06:53:56 PM 30.7433 -81.5147 235° Southwest 279 321 6,200 -1,475 Descending Jacksonville Center
Wed 06:54:38 PM 30.7106 -81.5733 237° Southwest 263 303 5,000 -1,400 Descending Jacksonville Center
Wed 06:54:56 PM 30.7044 -81.5856 240° Southwest 273 314 4,800 -1,475 Descending Jacksonville Center
Wed 06:55:39 PM 30.6717 -81.6392 235° Southwest 252 290 3,500 -1,600 Descending Jacksonville Center
Wed 06:55:56 PM 30.6633 -81.6536 236° Southwest 263 303 3,200 -1,279 Descending Jacksonville Center
Wed 06:56:40 PM 30.6306 -81.7097 236° Southwest 250 288 2,200 -1,100 Descending Jacksonville Center
Wed 06:56:56 PM 30.6244 -81.7194 234° Southwest 263 303 2,100 -197 Descending Jacksonville Center
Wed 06:57:41 PM 30.5978 -81.7728 240° Southwest 219 252 2,000 -57 Descending Jacksonville Center
Wed 06:58:42 PM 30.5500 -81.8072 212° Southwest 191 220 2,000 -148 Level Jacksonville Center
Wed 06:59:43 PM 30.5042 -81.8100 183° South 138 159 1,700 -244 Descending Jacksonville Center
Wed 07:00:45 PM 30.4725 -81.7839 145° Southeast 138 159 1,500 -439 Descending Jacksonville Center
Wed 07:01:46 PM 30.4825 -81.7403 75° East 129 148 800 -689 Descending Jacksonville Center
Wed 07:03:00 PM 30.4833 -81.6833 103° East  Level FlightAware Approximate
Wed 07:10:00 PM 30.4941 -81.6878 103° East  Level Estimated
Wed 07:11:00 PM 30.4941 -81.6878 103° East  Level Estimated

Login

Don't have an account? Register now (free) for customized features, flight alerts, and more!